Terminal Aerodrome Forecast
Issued by NWS Springfield, MO

Home | Current Version | Previous Version | Text Only | Print | Product List | Glossary Off
Versions: 1 2 3 4 5 6 7 8 9 10 11 12 13 14 15

000
FTUS43 KSGF 291700
TAFSGF
TAF
KSGF 291734Z 2918/3018 33014G24KT P6SM OVC020
     FM292100 33010KT P6SM OVC030
      TEMPO 2922/3002 OVC035
     FM300300 35007KT P6SM SCT035
     FM301500 05006KT P6SM SKC=

USA.gov is the U.S. government's official web portal to all federal, state and local government web resources and services.